createdAt,value
2023-02-22T00:01:21.906Z,16.52
2023-02-22T00:03:52.102Z,13.82
2023-02-22T00:06:21.041Z,13.98
2023-02-22T00:08:52.555Z,13.77
2023-02-22T00:11:20.490Z,14.05
2023-02-22T00:13:50.391Z,13.40
2023-02-22T00:16:20.138Z,13.52
2023-02-22T00:18:47.297Z,14.68
2023-02-22T00:21:16.600Z,13.23
2023-02-22T00:23:48.968Z,13.55
2023-02-22T00:26:19.659Z,12.85
2023-02-22T00:28:52.166Z,12.55
2023-02-22T00:31:20.308Z,12.90
2023-02-22T00:33:48.392Z,12.23
2023-02-22T00:36:15.113Z,12.57
2023-02-22T00:38:42.076Z,12.13
2023-02-22T00:41:09.667Z,12.68
2023-02-22T00:43:36.418Z,12.27
2023-02-22T00:46:03.618Z,12.67
2023-02-22T00:48:30.170Z,12.18
2023-02-22T00:50:56.725Z,12.80
2023-02-22T00:53:25.039Z,15.15
2023-02-22T00:55:52.072Z,12.50
2023-02-22T00:58:18.760Z,12.40
2023-02-22T01:00:46.148Z,13.93
2023-02-22T01:03:18.414Z,14.90
2023-02-22T01:05:45.264Z,13.75
2023-02-22T01:08:13.865Z,14.43
2023-02-22T01:10:40.618Z,15.00
2023-02-22T01:13:12.322Z,14.60
2023-02-22T01:15:42.703Z,14.43
2023-02-22T01:18:09.764Z,15.52
2023-02-22T01:20:36.576Z,15.60
2023-02-22T01:23:06.500Z,17.00
2023-02-22T01:25:33.693Z,15.45
2023-02-22T01:28:01.867Z,16.98
2023-02-22T01:30:32.931Z,17.52
2023-02-22T01:33:00.905Z,19.67
2023-02-22T01:35:30.907Z,19.97
2023-02-22T01:37:58.335Z,18.35
2023-02-22T01:40:39.197Z,22.35
2023-02-22T01:43:15.925Z,18.05
2023-02-22T01:45:55.358Z,20.00
2023-02-22T01:48:45.204Z,26.63
2023-02-22T01:51:19.493Z,24.98
2023-02-22T01:53:54.494Z,24.35
2023-02-22T01:56:23.257Z,26.35
2023-02-22T01:58:55.035Z,25.15
2023-02-22T02:01:23.773Z,27.40
2023-02-22T02:03:51.902Z,28.15
2023-02-22T02:06:19.352Z,26.65
2023-02-22T02:08:55.720Z,28.75
2023-02-22T02:11:25.578Z,26.73
2023-02-22T02:13:57.364Z,27.00
2023-02-22T02:16:27.704Z,29.45
2023-02-22T02:18:54.521Z,25.08
2023-02-22T02:21:39.042Z,28.77
2023-02-22T02:24:28.447Z,34.75
2023-02-22T02:27:09.175Z,26.90
2023-02-22T02:29:57.437Z,23.58
2023-02-22T02:33:19.666Z,26.13
2023-02-22T02:36:18.885Z,32.17
2023-02-22T02:38:54.759Z,29.13
2023-02-22T02:41:27.653Z,30.77
2023-02-22T02:44:00.439Z,29.00
2023-02-22T02:46:34.879Z,28.08
2023-02-22T02:49:07.131Z,28.37
2023-02-22T02:51:38.717Z,27.25
2023-02-22T02:54:07.453Z,28.83
2023-02-22T02:56:34.317Z,26.10
2023-02-22T02:59:00.841Z,26.98
2023-02-22T03:01:52.427Z,28.77
2023-02-22T03:05:07.384Z,29.55
2023-02-22T03:07:49.251Z,28.73
2023-02-22T03:10:25.461Z,27.95
2023-02-22T03:13:10.015Z,28.30
2023-02-22T03:16:06.011Z,28.27
2023-02-22T03:19:04.651Z,27.33
2023-02-22T03:21:36.383Z,29.20
2023-02-22T03:24:25.516Z,31.48
2023-02-22T03:26:58.757Z,28.05
2023-02-22T03:29:30.247Z,28.30
2023-02-22T03:32:01.460Z,27.42
2023-02-22T03:34:37.973Z,29.42
2023-02-22T03:37:14.428Z,30.60
2023-02-22T03:39:44.392Z,29.23
2023-02-22T03:42:22.572Z,30.57
2023-02-22T03:44:52.331Z,29.33
2023-02-22T03:47:30.486Z,28.33
2023-02-22T03:50:09.499Z,27.13
2023-02-22T03:52:37.700Z,26.88
2023-02-22T03:55:11.813Z,27.57
2023-02-22T03:57:42.983Z,27.98
2023-02-22T04:00:14.448Z,26.20
2023-02-22T04:02:41.984Z,26.52
2023-02-22T04:05:14.211Z,23.15
2023-02-22T04:07:42.148Z,24.20
2023-02-22T04:10:12.064Z,24.65
2023-02-22T04:12:38.661Z,23.30
2023-02-22T04:15:07.921Z,23.40
2023-02-22T04:17:35.072Z,22.10
2023-02-22T04:20:03.862Z,22.57
2023-02-22T04:22:41.526Z,24.60
2023-02-22T04:25:08.414Z,23.58
2023-02-22T04:27:35.265Z,24.27
2023-02-22T04:30:01.960Z,23.88
2023-02-22T04:32:30.791Z,24.03
2023-02-22T04:34:58.678Z,23.85
2023-02-22T04:37:26.203Z,24.38
2023-02-22T04:39:53.949Z,22.73
2023-02-22T04:42:20.791Z,22.58
2023-02-22T04:44:47.254Z,23.80
2023-02-22T04:47:14.766Z,22.48
2023-02-22T04:49:41.282Z,20.77
2023-02-22T04:52:07.890Z,21.48
2023-02-22T04:54:37.652Z,21.65
2023-02-22T04:57:04.250Z,21.90
2023-02-22T04:59:33.748Z,24.42
2023-02-22T05:02:01.561Z,21.80
2023-02-22T05:04:28.114Z,21.73
2023-02-22T05:06:55.145Z,22.40
2023-02-22T05:09:21.846Z,21.30
2023-02-22T05:11:48.312Z,22.42
2023-02-22T05:14:14.919Z,22.13
2023-02-22T05:16:41.506Z,25.42
2023-02-22T05:19:10.333Z,22.38
2023-02-22T05:21:36.777Z,21.77
2023-02-22T05:24:03.324Z,25.33
2023-02-22T05:26:29.838Z,21.80
2023-02-22T05:28:56.344Z,21.48
2023-02-22T05:31:22.910Z,26.38
2023-02-22T05:33:49.523Z,22.10
2023-02-22T05:36:16.763Z,24.92
2023-02-22T05:38:44.710Z,25.10
2023-02-22T05:41:12.689Z,26.35
2023-02-22T05:43:40.459Z,23.40
2023-02-22T05:46:07.544Z,25.13
2023-02-22T05:48:34.405Z,23.80
2023-02-22T05:51:00.950Z,24.73
2023-02-22T05:53:27.736Z,23.88
2023-02-22T05:55:54.556Z,24.63
2023-02-22T05:58:21.443Z,26.77
2023-02-22T06:00:48.018Z,27.65
2023-02-22T06:03:14.794Z,24.33
2023-02-22T06:05:42.150Z,26.42
2023-02-22T06:08:08.857Z,26.50
2023-02-22T06:10:35.440Z,27.57
2023-02-22T06:13:03.149Z,28.75
2023-02-22T06:15:30.382Z,26.48
2023-02-22T06:17:58.679Z,29.15
2023-02-22T06:20:27.258Z,27.75
2023-02-22T06:22:55.875Z,23.77
2023-02-22T06:25:24.950Z,24.40
2023-02-22T06:27:51.952Z,28.33
2023-02-22T06:30:20.605Z,29.75
2023-02-22T06:32:47.176Z,27.05
2023-02-22T06:35:15.134Z,23.90
2023-02-22T06:37:41.626Z,26.55
2023-02-22T06:40:08.966Z,26.58
2023-02-22T06:42:35.477Z,28.30
2023-02-22T06:45:02.057Z,27.15
2023-02-22T06:47:28.660Z,26.60
2023-02-22T06:49:59.466Z,28.08
2023-02-22T06:52:26.210Z,33.55
2023-02-22T06:54:52.877Z,32.40
2023-02-22T06:57:19.457Z,30.15
2023-02-22T06:59:46.401Z,32.57
2023-02-22T07:02:13.573Z,32.83
2023-02-22T07:04:43.186Z,33.00
2023-02-22T07:07:10.222Z,31.08
2023-02-22T07:09:36.754Z,29.98
2023-02-22T07:12:03.574Z,28.03
2023-02-22T07:14:30.105Z,28.15
2023-02-22T07:16:56.577Z,29.52
2023-02-22T07:19:24.636Z,29.67
2023-02-22T07:21:55.268Z,29.23
2023-02-22T07:24:21.989Z,28.07
2023-02-22T07:26:48.658Z,28.90
2023-02-22T07:29:15.191Z,29.92
2023-02-22T07:31:41.758Z,27.85
2023-02-22T07:34:08.303Z,29.80
2023-02-22T07:36:34.896Z,30.57
2023-02-22T07:39:01.445Z,29.67
2023-02-22T07:41:28.116Z,27.88
2023-02-22T07:43:54.688Z,28.35
2023-02-22T07:46:21.231Z,30.20
2023-02-22T07:48:47.818Z,30.17
2023-02-22T07:51:20.757Z,28.10
2023-02-22T07:53:48.724Z,28.45
2023-02-22T07:56:15.933Z,32.15
2023-02-22T07:58:42.443Z,31.25
2023-02-22T08:01:08.938Z,30.07
2023-02-22T08:03:36.746Z,34.50
2023-02-22T08:06:05.673Z,36.65
2023-02-22T08:08:32.255Z,36.03
2023-02-22T08:10:58.799Z,29.83
2023-02-22T08:13:25.328Z,32.73
2023-02-22T08:15:53.722Z,30.38
2023-02-22T08:18:21.056Z,31.35
2023-02-22T08:20:49.702Z,31.42
2023-02-22T08:23:17.670Z,27.83
2023-02-22T08:25:44.518Z,30.50
2023-02-22T08:28:13.763Z,29.60
2023-02-22T08:30:42.827Z,30.92
2023-02-22T08:33:14.275Z,28.73
2023-02-22T08:35:41.313Z,26.65
2023-02-22T08:38:15.547Z,30.00
2023-02-22T08:40:42.064Z,28.73
2023-02-22T08:43:08.632Z,28.33
2023-02-22T08:45:35.191Z,35.72
2023-02-22T08:48:01.796Z,28.40
2023-02-22T08:50:30.565Z,28.70
2023-02-22T08:52:59.369Z,29.95
2023-02-22T08:55:28.709Z,34.13
2023-02-22T08:57:55.223Z,36.25
2023-02-22T09:00:25.506Z,34.78
2023-02-22T09:02:52.807Z,34.73
2023-02-22T09:05:19.766Z,39.10
2023-02-22T09:07:46.325Z,36.58
2023-02-22T09:10:18.296Z,35.50
2023-02-22T09:12:44.789Z,34.47
2023-02-22T09:15:15.005Z,36.47
2023-02-22T09:17:41.572Z,37.53
2023-02-22T09:20:11.102Z,33.78
2023-02-22T09:22:37.945Z,33.33
2023-02-22T09:25:16.243Z,35.13
2023-02-22T09:27:44.280Z,35.77
2023-02-22T09:30:23.806Z,33.42
2023-02-22T09:32:56.375Z,33.60
2023-02-22T09:35:27.038Z,31.45
2023-02-22T09:37:55.347Z,29.67
2023-02-22T09:40:29.546Z,29.67
2023-02-22T09:43:11.385Z,29.77
2023-02-22T09:45:51.936Z,29.35
2023-02-22T09:48:22.430Z,30.38
2023-02-22T09:50:52.829Z,29.00
2023-02-22T09:53:29.771Z,29.10
2023-02-22T09:56:00.538Z,26.95
2023-02-22T09:58:41.460Z,31.55
2023-02-22T10:01:23.155Z,27.58
2023-02-22T10:03:56.976Z,25.60
2023-02-22T10:06:24.841Z,28.70
2023-02-22T10:08:58.960Z,25.13
2023-02-22T10:11:55.510Z,24.27
2023-02-22T10:14:37.382Z,25.00
2023-02-22T10:17:22.597Z,24.88
2023-02-22T10:20:20.921Z,26.67
2023-02-22T10:22:52.361Z,26.33
2023-02-22T10:25:22.412Z,24.05
2023-02-22T10:28:00.196Z,23.45
2023-02-22T10:30:34.482Z,25.23
2023-02-22T10:33:21.882Z,24.10
2023-02-22T10:35:48.959Z,22.50
2023-02-22T10:38:24.313Z,21.50
2023-02-22T10:40:56.752Z,23.83
2023-02-22T10:43:23.720Z,22.33
2023-02-22T10:45:55.822Z,23.30
2023-02-22T10:48:26.332Z,25.10
2023-02-22T10:50:58.425Z,20.67
2023-02-22T10:53:26.989Z,21.10
2023-02-22T10:56:07.764Z,20.92
2023-02-22T10:59:06.035Z,20.83
2023-02-22T11:01:32.641Z,20.02
2023-02-22T11:04:00.888Z,19.75
2023-02-22T11:06:27.812Z,21.65
2023-02-22T11:09:13.770Z,20.17
2023-02-22T11:11:45.988Z,19.87
2023-02-22T11:14:24.380Z,20.40
2023-02-22T11:16:53.800Z,18.35
2023-02-22T11:19:31.866Z,18.25
2023-02-22T11:22:07.886Z,18.25
2023-02-22T11:24:47.456Z,17.70
2023-02-22T11:27:26.014Z,18.98
2023-02-22T11:29:52.809Z,18.77
2023-02-22T11:32:22.425Z,18.67
2023-02-22T11:35:00.302Z,18.02
2023-02-22T11:37:36.814Z,18.47
2023-02-22T11:40:12.020Z,17.13
2023-02-22T11:42:38.606Z,19.02
2023-02-22T11:45:27.490Z,16.55
2023-02-22T11:47:58.978Z,16.50
2023-02-22T11:50:37.748Z,17.07
2023-02-22T11:53:26.225Z,15.85
2023-02-22T11:56:04.787Z,17.25
2023-02-22T11:59:08.017Z,16.92
2023-02-22T12:01:51.407Z,18.15
2023-02-22T12:04:30.814Z,17.13
2023-02-22T12:07:22.057Z,16.15
2023-02-22T12:10:06.780Z,17.20
2023-02-22T12:13:01.748Z,15.82
2023-02-22T12:15:52.239Z,15.98
2023-02-22T12:18:30.114Z,14.87
2023-02-22T12:21:09.110Z,14.75
2023-02-22T12:23:53.333Z,14.50
2023-02-22T12:26:55.361Z,13.30
2023-02-22T12:29:41.225Z,14.77
2023-02-22T12:32:14.236Z,13.87
2023-02-22T12:34:48.735Z,14.85
2023-02-22T12:37:23.632Z,16.33
2023-02-22T12:40:13.404Z,15.32
2023-02-22T12:42:50.207Z,14.18
2023-02-22T12:45:29.761Z,14.70
2023-02-22T12:48:21.522Z,14.55
2023-02-22T12:50:58.708Z,14.57
2023-02-22T12:53:38.251Z,15.05
2023-02-22T12:56:20.054Z,13.90
2023-02-22T12:58:55.729Z,13.43
2023-02-22T13:01:27.522Z,17.35
2023-02-22T13:03:55.820Z,16.63
2023-02-22T13:06:30.618Z,16.67
2023-02-22T13:09:15.840Z,14.57
2023-02-22T13:11:42.245Z,16.13
2023-02-22T13:14:41.477Z,15.20
2023-02-22T13:17:27.142Z,15.52
2023-02-22T13:20:18.398Z,16.17
2023-02-22T13:22:55.301Z,14.98
2023-02-22T13:25:57.516Z,16.23
2023-02-22T13:28:36.049Z,15.13
2023-02-22T13:31:19.045Z,15.15
2023-02-22T13:34:09.117Z,15.07
2023-02-22T13:37:17.608Z,15.00
2023-02-22T13:40:03.268Z,14.43
2023-02-22T13:43:00.794Z,14.75
2023-02-22T13:45:46.425Z,15.25
2023-02-22T13:48:15.904Z,15.10
2023-02-22T13:51:08.829Z,16.58
2023-02-22T13:53:58.201Z,16.80
2023-02-22T13:56:26.144Z,16.25
2023-02-22T13:58:55.663Z,16.85
2023-02-22T14:01:45.708Z,17.30
2023-02-22T14:04:27.116Z,17.73
2023-02-22T14:06:55.187Z,18.37
2023-02-22T14:09:45.436Z,17.92
2023-02-22T14:12:33.592Z,17.60
2023-02-22T14:15:31.208Z,17.42
2023-02-22T14:18:01.095Z,16.85
2023-02-22T14:20:32.485Z,17.30
2023-02-22T14:23:28.898Z,15.90
2023-02-22T14:25:57.026Z,17.42
2023-02-22T14:28:40.365Z,16.30
2023-02-22T14:31:08.446Z,17.42
2023-02-22T14:33:56.939Z,15.80
2023-02-22T14:36:31.876Z,16.52
2023-02-22T14:39:06.699Z,16.77
2023-02-22T14:41:35.700Z,17.17
2023-02-22T14:44:04.298Z,15.80
2023-02-22T14:46:35.428Z,15.43
2023-02-22T14:49:05.454Z,14.77
2023-02-22T14:51:41.995Z,15.45
2023-02-22T14:54:21.144Z,15.68
2023-02-22T14:57:14.757Z,14.63
2023-02-22T14:59:52.392Z,15.67
2023-02-22T15:02:20.534Z,14.50
2023-02-22T15:04:55.041Z,15.65
2023-02-22T15:07:27.660Z,14.82
2023-02-22T15:10:23.938Z,14.43
2023-02-22T15:13:09.371Z,14.33
2023-02-22T15:15:48.837Z,15.20
2023-02-22T15:18:23.116Z,14.38
2023-02-22T15:20:57.500Z,15.98
2023-02-22T15:23:30.351Z,15.32
2023-02-22T15:25:57.654Z,15.37
2023-02-22T15:28:28.867Z,14.65
2023-02-22T15:31:25.485Z,15.00
2023-02-22T15:33:55.869Z,16.02
2023-02-22T15:36:32.358Z,16.27
2023-02-22T15:38:58.908Z,14.47
2023-02-22T15:41:31.631Z,14.63
2023-02-22T15:44:14.133Z,15.10
2023-02-22T15:46:48.018Z,14.43
2023-02-22T15:49:14.717Z,14.77
2023-02-22T15:51:46.316Z,14.70
2023-02-22T15:54:26.521Z,14.15
2023-02-22T15:56:56.582Z,14.77
2023-02-22T15:59:30.285Z,15.90
2023-02-22T16:01:59.242Z,15.18
2023-02-22T16:04:28.919Z,14.30
2023-02-22T16:07:16.924Z,14.20
2023-02-22T16:09:51.291Z,14.13
2023-02-22T16:12:25.994Z,14.80
2023-02-22T16:14:52.694Z,14.30
2023-02-22T16:17:25.597Z,14.87
2023-02-22T16:19:53.232Z,15.15
2023-02-22T16:22:34.602Z,14.35
2023-02-22T16:25:19.543Z,14.77
2023-02-22T16:27:57.939Z,14.55
2023-02-22T16:30:28.551Z,14.07
2023-02-22T16:32:57.414Z,14.95
2023-02-22T16:35:29.507Z,15.98
2023-02-22T16:38:04.980Z,15.55
2023-02-22T16:40:38.334Z,15.30
2023-02-22T16:43:12.238Z,15.63
2023-02-22T16:45:41.284Z,15.85
2023-02-22T16:48:38.185Z,15.85
2023-02-22T16:51:24.515Z,15.68
2023-02-22T16:53:53.801Z,15.60
2023-02-22T16:56:23.449Z,15.80
2023-02-22T16:58:51.084Z,17.27
2023-02-22T17:01:17.989Z,15.57
2023-02-22T17:03:45.042Z,16.40
2023-02-22T17:06:12.516Z,16.17
2023-02-22T17:08:40.552Z,16.13
2023-02-22T17:11:08.480Z,16.13
2023-02-22T17:13:35.547Z,17.38
2023-02-22T17:16:02.326Z,15.77
2023-02-22T17:18:33.867Z,18.40
2023-02-22T17:21:02.532Z,16.57
2023-02-22T17:23:29.168Z,16.23
2023-02-22T17:25:59.203Z,15.43
2023-02-22T17:28:26.421Z,16.02
2023-02-22T17:30:54.418Z,16.40
2023-02-22T17:33:26.762Z,17.40
2023-02-22T17:35:55.085Z,16.73
2023-02-22T17:38:22.860Z,17.38
2023-02-22T17:40:54.716Z,17.15
2023-02-22T17:43:22.134Z,17.20
2023-02-22T17:45:49.169Z,17.80
2023-02-22T17:48:17.623Z,17.73
2023-02-22T17:50:46.602Z,17.70
2023-02-22T17:53:13.710Z,17.10
2023-02-22T17:55:41.712Z,16.55
2023-02-22T17:58:14.693Z,18.07
2023-02-22T18:00:44.422Z,17.80
2023-02-22T18:03:15.476Z,16.98
2023-02-22T18:05:48.206Z,17.88
2023-02-22T18:08:15.512Z,16.35
2023-02-22T18:10:44.010Z,17.13
2023-02-22T18:13:18.773Z,17.15
2023-02-22T18:15:46.895Z,17.35
2023-02-22T18:18:17.966Z,17.27
2023-02-22T18:20:51.691Z,17.30
2023-02-22T18:23:22.220Z,16.77
2023-02-22T18:26:09.219Z,17.70
2023-02-22T18:28:37.206Z,19.65
2023-02-22T18:31:09.275Z,18.80
2023-02-22T18:33:36.032Z,18.55
2023-02-22T18:36:05.513Z,17.47
2023-02-22T18:38:32.138Z,19.30
2023-02-22T18:41:04.650Z,17.95
2023-02-22T18:43:35.633Z,17.85
2023-02-22T18:46:16.481Z,19.92
2023-02-22T18:48:44.476Z,17.70
2023-02-22T18:51:13.895Z,18.98
2023-02-22T18:53:46.935Z,19.38
2023-02-22T18:56:17.862Z,19.00
2023-02-22T18:58:45.062Z,18.95
2023-02-22T19:01:18.096Z,20.43
2023-02-22T19:03:47.295Z,20.20
2023-02-22T19:06:14.992Z,19.48
2023-02-22T19:08:42.968Z,18.95
2023-02-22T19:11:31.272Z,19.95
2023-02-22T19:13:58.045Z,20.80
2023-02-22T19:16:26.544Z,21.30
2023-02-22T19:18:57.086Z,20.08
2023-02-22T19:21:26.339Z,22.23
2023-02-22T19:24:00.094Z,22.95
2023-02-22T19:26:27.624Z,20.67
2023-02-22T19:28:56.853Z,23.02
2023-02-22T19:31:33.640Z,22.65
2023-02-22T19:34:06.165Z,23.00
2023-02-22T19:36:32.889Z,20.13
2023-02-22T19:39:02.065Z,23.60
2023-02-22T19:41:29.465Z,22.90
2023-02-22T19:43:56.230Z,23.83
2023-02-22T19:46:24.791Z,23.42
2023-02-22T19:48:53.124Z,22.83
2023-02-22T19:51:21.266Z,25.20
2023-02-22T19:53:47.978Z,23.55
2023-02-22T19:56:17.035Z,23.77
2023-02-22T19:58:46.318Z,22.67
2023-02-22T20:01:25.376Z,24.40
2023-02-22T20:03:59.824Z,23.63
2023-02-22T20:06:31.581Z,24.48
2023-02-22T20:08:58.149Z,24.40
2023-02-22T20:11:24.919Z,25.92
2023-02-22T20:13:51.549Z,24.70
2023-02-22T20:16:18.443Z,24.73
2023-02-22T20:18:46.837Z,25.88
2023-02-22T20:21:20.623Z,27.40
2023-02-22T20:23:47.680Z,26.75
2023-02-22T20:26:18.167Z,27.38
2023-02-22T20:28:45.510Z,26.50
2023-02-22T20:31:13.801Z,24.48
2023-02-22T20:33:42.112Z,26.90
2023-02-22T20:36:10.433Z,27.20
2023-02-22T20:38:37.965Z,27.77
2023-02-22T20:41:09.957Z,28.07
2023-02-22T20:43:36.484Z,28.25
2023-02-22T20:46:05.214Z,28.73
2023-02-22T20:48:32.838Z,30.85
2023-02-22T20:51:07.072Z,30.25
2023-02-22T20:53:34.514Z,30.13
2023-02-22T20:56:01.946Z,32.30
2023-02-22T20:58:29.182Z,28.30
2023-02-22T21:00:55.752Z,31.20
2023-02-22T21:03:22.278Z,30.00
2023-02-22T21:05:48.992Z,29.87
2023-02-22T21:08:15.651Z,30.05
2023-02-22T21:10:47.114Z,28.05
2023-02-22T21:13:14.265Z,32.08
2023-02-22T21:15:43.619Z,31.00
2023-02-22T21:18:10.732Z,32.63
2023-02-22T21:20:40.250Z,32.67
2023-02-22T21:23:07.048Z,31.35
2023-02-22T21:25:34.136Z,31.85
2023-02-22T21:28:01.029Z,33.42
2023-02-22T21:30:27.890Z,32.70
2023-02-22T21:32:55.415Z,31.80
2023-02-22T21:35:23.267Z,33.38
2023-02-22T21:37:50.909Z,33.80
2023-02-22T21:40:20.241Z,35.58
2023-02-22T21:42:50.304Z,33.43
2023-02-22T21:45:21.317Z,34.00
2023-02-22T21:47:49.067Z,33.20
2023-02-22T21:50:17.431Z,34.30
2023-02-22T21:52:44.760Z,34.45
2023-02-22T21:55:11.842Z,32.83
2023-02-22T21:57:38.357Z,34.03
2023-02-22T22:00:17.590Z,34.47
2023-02-22T22:02:48.055Z,34.65
2023-02-22T22:05:31.550Z,34.00
2023-02-22T22:07:58.345Z,35.77
2023-02-22T22:10:27.808Z,35.83
2023-02-22T22:12:54.480Z,36.97
2023-02-22T22:15:21.167Z,36.58
2023-02-22T22:17:47.681Z,34.20
2023-02-22T22:20:16.998Z,35.50
2023-02-22T22:22:46.000Z,35.05
2023-02-22T22:25:17.076Z,35.78
2023-02-22T22:27:46.082Z,32.78
2023-02-22T22:30:13.199Z,35.38
2023-02-22T22:32:40.190Z,30.87
2023-02-22T22:35:14.415Z,37.30
2023-02-22T22:37:42.629Z,35.28
2023-02-22T22:40:15.669Z,31.73
2023-02-22T22:42:42.729Z,34.92
2023-02-22T22:45:17.187Z,34.30
2023-02-22T22:47:45.948Z,30.63
2023-02-22T22:50:14.074Z,36.80
2023-02-22T22:52:41.030Z,34.17
2023-02-22T22:55:11.977Z,35.00
2023-02-22T22:57:39.608Z,33.77
2023-02-22T23:00:26.719Z,35.63
2023-02-22T23:02:56.283Z,35.63
2023-02-22T23:05:28.122Z,35.10
2023-02-22T23:07:56.625Z,35.13
2023-02-22T23:10:29.307Z,36.13
2023-02-22T23:12:56.476Z,32.22
2023-02-22T23:15:24.609Z,35.30
2023-02-22T23:17:56.005Z,34.95
2023-02-22T23:20:26.248Z,33.17
2023-02-22T23:22:54.001Z,38.27
2023-02-22T23:25:21.756Z,35.83
2023-02-22T23:27:49.388Z,36.53
2023-02-22T23:30:18.637Z,37.35
2023-02-22T23:32:49.024Z,37.88
2023-02-22T23:35:16.384Z,38.17
2023-02-22T23:37:42.941Z,35.53
2023-02-22T23:40:16.887Z,35.72
2023-02-22T23:42:48.968Z,36.85
2023-02-22T23:45:22.929Z,36.22
2023-02-22T23:47:54.793Z,34.07
2023-02-22T23:50:27.541Z,35.33
2023-02-22T23:52:58.170Z,37.17
2023-02-22T23:55:27.386Z,36.63
2023-02-22T23:57:59.435Z,35.83
